sensor_id;sensor_type;location;lat;lon;timestamp;temperature;humidity
49042;DHT22;34859;51.608;11.462;2024-01-27T00:01:07;3.90;99.90
49042;DHT22;34859;51.608;11.462;2024-01-27T00:03:51;3.80;99.90
49042;DHT22;34859;51.608;11.462;2024-01-27T00:06:38;3.70;99.90
49042;DHT22;34859;51.608;11.462;2024-01-27T00:09:22;3.60;99.90
49042;DHT22;34859;51.608;11.462;2024-01-27T00:12:06;3.60;99.90
49042;DHT22;34859;51.608;11.462;2024-01-27T00:14:51;3.40;99.90
49042;DHT22;34859;51.608;11.462;2024-01-27T00:17:35;3.70;99.90
49042;DHT22;34859;51.608;11.462;2024-01-27T00:20:16;3.80;99.90
49042;DHT22;34859;51.608;11.462;2024-01-27T00:23:00;3.90;99.90
49042;DHT22;34859;51.608;11.462;2024-01-27T00:25:44;3.80;99.90
49042;DHT22;34859;51.608;11.462;2024-01-27T00:28:29;3.70;99.90
49042;DHT22;34859;51.608;11.462;2024-01-27T00:31:13;3.70;99.90
49042;DHT22;34859;51.608;11.462;2024-01-27T00:33:52;3.80;99.90
49042;DHT22;34859;51.608;11.462;2024-01-27T00:36:37;3.80;99.90
49042;DHT22;34859;51.608;11.462;2024-01-27T00:39:22;3.80;99.90
49042;DHT22;34859;51.608;11.462;2024-01-27T00:42:07;3.80;99.90
49042;DHT22;34859;51.608;11.462;2024-01-27T00:44:52;3.90;99.90
49042;DHT22;34859;51.608;11.462;2024-01-27T00:47:37;4.00;99.90
49042;DHT22;34859;51.608;11.462;2024-01-27T00:50:22;3.90;99.90
49042;DHT22;34859;51.608;11.462;2024-01-27T00:53:06;3.90;99.90
49042;DHT22;34859;51.608;11.462;2024-01-27T00:55:52;3.80;99.90
49042;DHT22;34859;51.608;11.462;2024-01-27T00:58:36;3.80;99.90
49042;DHT22;34859;51.608;11.462;2024-01-27T01:01:21;3.80;99.90
49042;DHT22;34859;51.608;11.462;2024-01-27T01:04:07;3.90;99.90
49042;DHT22;34859;51.608;11.462;2024-01-27T01:06:52;4.10;99.90
49042;DHT22;34859;51.608;11.462;2024-01-27T01:09:37;4.20;99.90
49042;DHT22;34859;51.608;11.462;2024-01-27T01:12:22;4.30;99.90
49042;DHT22;34859;51.608;11.462;2024-01-27T01:15:06;4.30;99.90
49042;DHT22;34859;51.608;11.462;2024-01-27T01:17:51;4.20;99.90
49042;DHT22;34859;51.608;11.462;2024-01-27T01:20:36;4.20;99.90
49042;DHT22;34859;51.608;11.462;2024-01-27T01:23:21;4.00;99.90
49042;DHT22;34859;51.608;11.462;2024-01-27T01:26:06;3.90;99.90
49042;DHT22;34859;51.608;11.462;2024-01-27T01:28:51;3.80;99.90
49042;DHT22;34859;51.608;11.462;2024-01-27T01:31:33;3.60;99.90
49042;DHT22;34859;51.608;11.462;2024-01-27T01:34:17;3.40;99.90
49042;DHT22;34859;51.608;11.462;2024-01-27T01:37:02;3.10;99.90
49042;DHT22;34859;51.608;11.462;2024-01-27T01:39:47;2.90;99.90
49042;DHT22;34859;51.608;11.462;2024-01-27T01:42:32;3.00;99.90
49042;DHT22;34859;51.608;11.462;2024-01-27T01:45:11;3.10;99.90
49042;DHT22;34859;51.608;11.462;2024-01-27T01:47:57;3.20;99.90
49042;DHT22;34859;51.608;11.462;2024-01-27T01:50:42;3.20;99.90
49042;DHT22;34859;51.608;11.462;2024-01-27T01:53:26;3.20;99.90
49042;DHT22;34859;51.608;11.462;2024-01-27T01:56:14;3.20;99.90
49042;DHT22;34859;51.608;11.462;2024-01-27T01:58:59;3.10;99.90
49042;DHT22;34859;51.608;11.462;2024-01-27T02:01:44;3.00;99.90
49042;DHT22;34859;51.608;11.462;2024-01-27T02:04:42;2.80;99.90
49042;DHT22;34859;51.608;11.462;2024-01-27T02:07:27;2.70;99.90
49042;DHT22;34859;51.608;11.462;2024-01-27T02:10:15;2.60;99.90
49042;DHT22;34859;51.608;11.462;2024-01-27T02:13:04;2.50;99.90
49042;DHT22;34859;51.608;11.462;2024-01-27T02:15:59;2.40;99.90
49042;DHT22;34859;51.608;11.462;2024-01-27T02:18:44;2.30;99.90
49042;DHT22;34859;51.608;11.462;2024-01-27T02:21:28;2.20;99.90
49042;DHT22;34859;51.608;11.462;2024-01-27T02:24:13;2.20;99.90
49042;DHT22;34859;51.608;11.462;2024-01-27T02:26:58;2.00;99.90
49042;DHT22;34859;51.608;11.462;2024-01-27T02:29:43;1.90;99.90
49042;DHT22;34859;51.608;11.462;2024-01-27T02:32:28;2.10;99.90
49042;DHT22;34859;51.608;11.462;2024-01-27T02:35:13;2.00;99.90
49042;DHT22;34859;51.608;11.462;2024-01-27T02:37:58;1.90;99.90
49042;DHT22;34859;51.608;11.462;2024-01-27T02:40:43;1.80;99.90
49042;DHT22;34859;51.608;11.462;2024-01-27T02:43:28;2.00;99.90
49042;DHT22;34859;51.608;11.462;2024-01-27T02:46:13;2.10;99.90
49042;DHT22;34859;51.608;11.462;2024-01-27T02:48:59;2.20;99.90
49042;DHT22;34859;51.608;11.462;2024-01-27T02:51:44;2.20;99.90
49042;DHT22;34859;51.608;11.462;2024-01-27T02:54:28;2.20;99.90
49042;DHT22;34859;51.608;11.462;2024-01-27T02:57:10;2.20;99.90
49042;DHT22;34859;51.608;11.462;2024-01-27T02:59:55;2.20;99.90
49042;DHT22;34859;51.608;11.462;2024-01-27T03:02:41;2.20;99.90
49042;DHT22;34859;51.608;11.462;2024-01-27T03:05:25;2.20;99.90
49042;DHT22;34859;51.608;11.462;2024-01-27T03:08:10;2.10;99.90
49042;DHT22;34859;51.608;11.462;2024-01-27T03:10:50;2.10;99.90
49042;DHT22;34859;51.608;11.462;2024-01-27T03:13:34;2.10;99.90
49042;DHT22;34859;51.608;11.462;2024-01-27T03:16:19;2.10;99.90
49042;DHT22;34859;51.608;11.462;2024-01-27T03:18:59;2.10;99.90
49042;DHT22;34859;51.608;11.462;2024-01-27T03:21:43;2.10;99.90
49042;DHT22;34859;51.608;11.462;2024-01-27T03:24:28;2.10;99.90
49042;DHT22;34859;51.608;11.462;2024-01-27T03:27:10;2.00;99.90
49042;DHT22;34859;51.608;11.462;2024-01-27T03:29:58;2.10;99.90
49042;DHT22;34859;51.608;11.462;2024-01-27T03:32:43;2.00;99.90
49042;DHT22;34859;51.608;11.462;2024-01-27T03:35:28;2.10;99.90
49042;DHT22;34859;51.608;11.462;2024-01-27T03:38:13;2.10;99.90
49042;DHT22;34859;51.608;11.462;2024-01-27T03:40:58;2.10;99.90
49042;DHT22;34859;51.608;11.462;2024-01-27T03:43:43;2.10;99.90
49042;DHT22;34859;51.608;11.462;2024-01-27T03:46:28;2.10;99.90
49042;DHT22;34859;51.608;11.462;2024-01-27T03:49:08;2.10;99.90
49042;DHT22;34859;51.608;11.462;2024-01-27T03:51:53;2.20;99.90
49042;DHT22;34859;51.608;11.462;2024-01-27T03:54:38;2.20;99.90
49042;DHT22;34859;51.608;11.462;2024-01-27T03:57:23;2.20;99.90
49042;DHT22;34859;51.608;11.462;2024-01-27T04:00:03;2.30;99.90
49042;DHT22;34859;51.608;11.462;2024-01-27T04:02:48;2.30;99.90
49042;DHT22;34859;51.608;11.462;2024-01-27T04:05:33;2.30;99.90
49042;DHT22;34859;51.608;11.462;2024-01-27T04:08:15;2.30;99.90
49042;DHT22;34859;51.608;11.462;2024-01-27T04:10:59;2.30;99.90
49042;DHT22;34859;51.608;11.462;2024-01-27T04:13:44;2.40;99.90
49042;DHT22;34859;51.608;11.462;2024-01-27T04:16:29;2.30;99.90
49042;DHT22;34859;51.608;11.462;2024-01-27T04:19:14;2.30;99.90
49042;DHT22;34859;51.608;11.462;2024-01-27T04:21:59;2.40;99.90
49042;DHT22;34859;51.608;11.462;2024-01-27T04:24:44;2.40;99.90
49042;DHT22;34859;51.608;11.462;2024-01-27T04:27:29;2.40;99.90
49042;DHT22;34859;51.608;11.462;2024-01-27T04:30:11;2.40;99.90
49042;DHT22;34859;51.608;11.462;2024-01-27T04:32:51;2.40;99.90
49042;DHT22;34859;51.608;11.462;2024-01-27T04:35:36;2.50;99.90
49042;DHT22;34859;51.608;11.462;2024-01-27T04:38:21;2.50;99.90
49042;DHT22;34859;51.608;11.462;2024-01-27T04:41:01;2.60;99.90
49042;DHT22;34859;51.608;11.462;2024-01-27T04:43:46;2.60;99.90
49042;DHT22;34859;51.608;11.462;2024-01-27T04:46:31;2.60;99.90
49042;DHT22;34859;51.608;11.462;2024-01-27T04:49:16;2.60;99.90
49042;DHT22;34859;51.608;11.462;2024-01-27T04:52:02;2.60;99.90
49042;DHT22;34859;51.608;11.462;2024-01-27T04:54:46;2.50;99.90
49042;DHT22;34859;51.608;11.462;2024-01-27T04:57:31;2.60;99.90
49042;DHT22;34859;51.608;11.462;2024-01-27T05:00:16;2.50;99.90
49042;DHT22;34859;51.608;11.462;2024-01-27T05:03:01;2.50;99.90
49042;DHT22;34859;51.608;11.462;2024-01-27T05:05:48;2.50;99.90
49042;DHT22;34859;51.608;11.462;2024-01-27T05:08:33;2.40;99.90
49042;DHT22;34859;51.608;11.462;2024-01-27T05:11:13;2.40;99.90
49042;DHT22;34859;51.608;11.462;2024-01-27T05:14:00;2.40;99.90
49042;DHT22;34859;51.608;11.462;2024-01-27T05:16:45;2.30;99.90
49042;DHT22;34859;51.608;11.462;2024-01-27T05:19:30;2.30;99.90
49042;DHT22;34859;51.608;11.462;2024-01-27T05:22:15;2.20;99.90
49042;DHT22;34859;51.608;11.462;2024-01-27T05:25:00;2.10;99.90
49042;DHT22;34859;51.608;11.462;2024-01-27T05:27:45;2.00;99.90
49042;DHT22;34859;51.608;11.462;2024-01-27T05:30:30;1.80;99.90
49042;DHT22;34859;51.608;11.462;2024-01-27T05:33:16;1.70;99.90
49042;DHT22;34859;51.608;11.462;2024-01-27T05:36:01;1.90;99.90
49042;DHT22;34859;51.608;11.462;2024-01-27T05:38:43;1.80;99.90
49042;DHT22;34859;51.608;11.462;2024-01-27T05:41:28;2.00;99.90
49042;DHT22;34859;51.608;11.462;2024-01-27T05:44:13;2.10;99.90
49042;DHT22;34859;51.608;11.462;2024-01-27T05:47:19;2.10;99.90
49042;DHT22;34859;51.608;11.462;2024-01-27T06:32:18;2.40;99.90
49042;DHT22;34859;51.608;11.462;2024-01-27T06:50:33;2.50;99.90
49042;DHT22;34859;51.608;11.462;2024-01-27T07:09:21;2.80;99.90
49042;DHT22;34859;51.608;11.462;2024-01-27T07:27:47;2.90;99.90
49042;DHT22;34859;51.608;11.462;2024-01-27T08:27:14;3.50;99.90
49042;DHT22;34859;51.608;11.462;2024-01-27T08:34:58;3.60;99.90
49042;DHT22;34859;51.608;11.462;2024-01-27T08:46:17;3.80;99.90
49042;DHT22;34859;51.608;11.462;2024-01-27T09:12:27;4.80;99.90
49042;DHT22;34859;51.608;11.462;2024-01-27T10:05:13;6.10;99.90
49042;DHT22;34859;51.608;11.462;2024-01-27T10:09:14;6.10;99.90
49042;DHT22;34859;51.608;11.462;2024-01-27T10:30:53;6.50;99.90
49042;DHT22;34859;51.608;11.462;2024-01-27T10:41:56;6.60;99.90
49042;DHT22;34859;51.608;11.462;2024-01-27T10:44:45;6.70;99.90
49042;DHT22;34859;51.608;11.462;2024-01-27T10:47:50;6.80;99.90
49042;DHT22;34859;51.608;11.462;2024-01-27T10:50:37;6.90;99.90
49042;DHT22;34859;51.608;11.462;2024-01-27T10:54:02;6.90;99.90
49042;DHT22;34859;51.608;11.462;2024-01-27T11:05:07;7.20;99.90
49042;DHT22;34859;51.608;11.462;2024-01-27T11:08:38;7.20;99.90
49042;DHT22;34859;51.608;11.462;2024-01-27T11:30:49;7.80;99.90
49042;DHT22;34859;51.608;11.462;2024-01-27T11:37:34;7.80;99.90
49042;DHT22;34859;51.608;11.462;2024-01-27T11:47:02;7.90;99.90
49042;DHT22;34859;51.608;11.462;2024-01-27T11:50:07;7.90;99.90
49042;DHT22;34859;51.608;11.462;2024-01-27T11:53:31;7.90;99.90
49042;DHT22;34859;51.608;11.462;2024-01-27T11:56:17;7.80;99.90
49042;DHT22;34859;51.608;11.462;2024-01-27T11:59:02;7.80;99.90
49042;DHT22;34859;51.608;11.462;2024-01-27T12:02:00;7.90;99.90
49042;DHT22;34859;51.608;11.462;2024-01-27T12:05:02;8.00;99.90
49042;DHT22;34859;51.608;11.462;2024-01-27T12:07:46;8.00;99.90
49042;DHT22;34859;51.608;11.462;2024-01-27T12:32:41;8.10;99.90
49042;DHT22;34859;51.608;11.462;2024-01-27T12:35:23;8.20;99.90
49042;DHT22;34859;51.608;11.462;2024-01-27T12:38:09;8.10;99.90
49042;DHT22;34859;51.608;11.462;2024-01-27T12:40:53;8.20;99.90
49042;DHT22;34859;51.608;11.462;2024-01-27T12:43:38;8.10;99.90
49042;DHT22;34859;51.608;11.462;2024-01-27T12:46:22;8.00;99.90
49042;DHT22;34859;51.608;11.462;2024-01-27T12:49:06;8.20;99.90
49042;DHT22;34859;51.608;11.462;2024-01-27T12:51:48;8.30;99.90
49042;DHT22;34859;51.608;11.462;2024-01-27T12:54:33;8.30;99.90
49042;DHT22;34859;51.608;11.462;2024-01-27T12:57:17;8.50;99.90
49042;DHT22;34859;51.608;11.462;2024-01-27T13:00:02;8.40;99.90
49042;DHT22;34859;51.608;11.462;2024-01-27T13:02:53;8.50;99.90
49042;DHT22;34859;51.608;11.462;2024-01-27T13:05:37;8.40;99.90
49042;DHT22;34859;51.608;11.462;2024-01-27T13:08:19;8.40;99.90
49042;DHT22;34859;51.608;11.462;2024-01-27T13:11:04;8.50;99.90
49042;DHT22;34859;51.608;11.462;2024-01-27T13:13:48;8.50;99.90
49042;DHT22;34859;51.608;11.462;2024-01-27T13:16:32;8.50;99.90
49042;DHT22;34859;51.608;11.462;2024-01-27T13:19:13;8.50;99.90
49042;DHT22;34859;51.608;11.462;2024-01-27T13:21:57;8.40;99.90
49042;DHT22;34859;51.608;11.462;2024-01-27T13:24:41;8.40;99.90
49042;DHT22;34859;51.608;11.462;2024-01-27T13:27:25;8.40;99.90
49042;DHT22;34859;51.608;11.462;2024-01-27T13:30:07;8.50;99.90
49042;DHT22;34859;51.608;11.462;2024-01-27T13:32:51;8.50;99.90
49042;DHT22;34859;51.608;11.462;2024-01-27T13:35:35;8.50;99.90
49042;DHT22;34859;51.608;11.462;2024-01-27T13:38:19;8.50;99.90
49042;DHT22;34859;51.608;11.462;2024-01-27T13:41:07;8.60;99.90
49042;DHT22;34859;51.608;11.462;2024-01-27T13:43:48;8.60;99.90
49042;DHT22;34859;51.608;11.462;2024-01-27T13:46:29;8.50;99.90
49042;DHT22;34859;51.608;11.462;2024-01-27T13:49:13;8.30;99.90
49042;DHT22;34859;51.608;11.462;2024-01-27T13:51:57;8.10;99.90
49042;DHT22;34859;51.608;11.462;2024-01-27T13:54:41;8.00;99.90
49042;DHT22;34859;51.608;11.462;2024-01-27T13:57:25;7.80;99.90
49042;DHT22;34859;51.608;11.462;2024-01-27T14:00:10;7.80;99.90
49042;DHT22;34859;51.608;11.462;2024-01-27T14:02:54;7.80;99.90
49042;DHT22;34859;51.608;11.462;2024-01-27T14:05:38;7.80;99.90
49042;DHT22;34859;51.608;11.462;2024-01-27T14:08:23;7.70;99.90
49042;DHT22;34859;51.608;11.462;2024-01-27T14:11:07;7.70;99.90
49042;DHT22;34859;51.608;11.462;2024-01-27T14:13:51;7.70;99.90
49042;DHT22;34859;51.608;11.462;2024-01-27T14:16:35;7.70;99.90
49042;DHT22;34859;51.608;11.462;2024-01-27T14:19:20;7.60;99.90
49042;DHT22;34859;51.608;11.462;2024-01-27T14:22:04;7.60;99.90
49042;DHT22;34859;51.608;11.462;2024-01-27T14:24:48;7.50;99.90
49042;DHT22;34859;51.608;11.462;2024-01-27T14:27:32;7.50;99.90
49042;DHT22;34859;51.608;11.462;2024-01-27T14:30:17;7.50;99.90
49042;DHT22;34859;51.608;11.462;2024-01-27T14:33:01;7.50;99.90
49042;DHT22;34859;51.608;11.462;2024-01-27T14:35:45;7.50;99.90
49042;DHT22;34859;51.608;11.462;2024-01-27T14:38:30;7.40;99.90
49042;DHT22;34859;51.608;11.462;2024-01-27T14:41:15;7.40;99.90
49042;DHT22;34859;51.608;11.462;2024-01-27T14:43:59;7.30;99.90
49042;DHT22;34859;51.608;11.462;2024-01-27T14:46:40;7.30;99.90
49042;DHT22;34859;51.608;11.462;2024-01-27T14:49:24;7.30;99.90
49042;DHT22;34859;51.608;11.462;2024-01-27T14:52:09;7.20;99.90
49042;DHT22;34859;51.608;11.462;2024-01-27T14:54:53;7.10;99.90
49042;DHT22;34859;51.608;11.462;2024-01-27T14:57:37;7.00;99.90
49042;DHT22;34859;51.608;11.462;2024-01-27T15:00:21;7.00;99.90
49042;DHT22;34859;51.608;11.462;2024-01-27T15:03:08;6.90;99.90
49042;DHT22;34859;51.608;11.462;2024-01-27T15:05:53;6.80;99.90
49042;DHT22;34859;51.608;11.462;2024-01-27T15:08:37;6.70;99.90
49042;DHT22;34859;51.608;11.462;2024-01-27T15:11:22;6.60;99.90
49042;DHT22;34859;51.608;11.462;2024-01-27T15:14:06;6.60;99.90
49042;DHT22;34859;51.608;11.462;2024-01-27T15:16:47;6.60;99.90
49042;DHT22;34859;51.608;11.462;2024-01-27T15:19:31;6.50;99.90
49042;DHT22;34859;51.608;11.462;2024-01-27T15:22:16;6.50;99.90
49042;DHT22;34859;51.608;11.462;2024-01-27T15:25:00;6.40;99.90
49042;DHT22;34859;51.608;11.462;2024-01-27T15:27:44;6.20;99.90
49042;DHT22;34859;51.608;11.462;2024-01-27T15:30:28;6.10;99.90
49042;DHT22;34859;51.608;11.462;2024-01-27T15:33:12;6.00;99.90
49042;DHT22;34859;51.608;11.462;2024-01-27T15:35:54;5.90;99.90
49042;DHT22;34859;51.608;11.462;2024-01-27T15:38:38;5.80;99.90
49042;DHT22;34859;51.608;11.462;2024-01-27T15:41:22;5.70;99.90
49042;DHT22;34859;51.608;11.462;2024-01-27T15:44:04;5.60;99.90
49042;DHT22;34859;51.608;11.462;2024-01-27T15:46:48;5.60;99.90
49042;DHT22;34859;51.608;11.462;2024-01-27T15:49:32;5.50;99.90
49042;DHT22;34859;51.608;11.462;2024-01-27T15:52:16;5.50;99.90
49042;DHT22;34859;51.608;11.462;2024-01-27T15:55:00;5.40;99.90
49042;DHT22;34859;51.608;11.462;2024-01-27T15:57:42;5.40;99.90
49042;DHT22;34859;51.608;11.462;2024-01-27T16:00:26;5.40;99.90
49042;DHT22;34859;51.608;11.462;2024-01-27T16:03:09;5.30;99.90
49042;DHT22;34859;51.608;11.462;2024-01-27T16:05:53;5.20;99.90
49042;DHT22;34859;51.608;11.462;2024-01-27T16:08:37;5.10;99.90
49042;DHT22;34859;51.608;11.462;2024-01-27T16:11:21;5.00;99.90
49042;DHT22;34859;51.608;11.462;2024-01-27T16:14:05;4.80;99.90
49042;DHT22;34859;51.608;11.462;2024-01-27T16:16:49;4.50;99.90
49042;DHT22;34859;51.608;11.462;2024-01-27T16:19:33;4.30;99.90
49042;DHT22;34859;51.608;11.462;2024-01-27T16:22:17;4.30;99.90
49042;DHT22;34859;51.608;11.462;2024-01-27T16:25:06;4.30;99.90
49042;DHT22;34859;51.608;11.462;2024-01-27T16:27:50;4.00;99.90
49042;DHT22;34859;51.608;11.462;2024-01-27T16:30:34;4.10;99.90
49042;DHT22;34859;51.608;11.462;2024-01-27T16:33:18;4.10;99.90
49042;DHT22;34859;51.608;11.462;2024-01-27T16:36:03;4.20;99.90
49042;DHT22;34859;51.608;11.462;2024-01-27T16:38:49;4.20;99.90
49042;DHT22;34859;51.608;11.462;2024-01-27T16:41:32;4.20;99.90
49042;DHT22;34859;51.608;11.462;2024-01-27T16:44:16;4.10;99.90
49042;DHT22;34859;51.608;11.462;2024-01-27T16:47:00;3.90;99.90
49042;DHT22;34859;51.608;11.462;2024-01-27T16:49:45;3.60;99.90
49042;DHT22;34859;51.608;11.462;2024-01-27T16:52:29;3.30;99.90
49042;DHT22;34859;51.608;11.462;2024-01-27T16:55:13;3.20;99.90
49042;DHT22;34859;51.608;11.462;2024-01-27T16:57:58;3.10;99.90
49042;DHT22;34859;51.608;11.462;2024-01-27T17:00:42;3.00;99.90
49042;DHT22;34859;51.608;11.462;2024-01-27T17:03:26;3.00;99.90
49042;DHT22;34859;51.608;11.462;2024-01-27T17:06:10;3.00;99.90
49042;DHT22;34859;51.608;11.462;2024-01-27T17:08:55;3.00;99.90
49042;DHT22;34859;51.608;11.462;2024-01-27T17:11:42;2.90;99.90
49042;DHT22;34859;51.608;11.462;2024-01-27T17:14:26;2.90;99.90
49042;DHT22;34859;51.608;11.462;2024-01-27T17:17:11;2.90;99.90
49042;DHT22;34859;51.608;11.462;2024-01-27T17:19:55;2.90;99.90
49042;DHT22;34859;51.608;11.462;2024-01-27T17:22:39;2.90;99.90
49042;DHT22;34859;51.608;11.462;2024-01-27T17:25:24;2.70;99.90
49042;DHT22;34859;51.608;11.462;2024-01-27T17:28:08;2.50;99.90
49042;DHT22;34859;51.608;11.462;2024-01-27T17:30:52;2.50;99.90
49042;DHT22;34859;51.608;11.462;2024-01-27T17:33:36;2.50;99.90
49042;DHT22;34859;51.608;11.462;2024-01-27T17:36:22;2.50;99.90
49042;DHT22;34859;51.608;11.462;2024-01-27T17:39:06;2.60;99.90
49042;DHT22;34859;51.608;11.462;2024-01-27T17:41:50;2.50;99.90
49042;DHT22;34859;51.608;11.462;2024-01-27T17:44:34;2.40;99.90
49042;DHT22;34859;51.608;11.462;2024-01-27T17:47:18;2.20;99.90
49042;DHT22;34859;51.608;11.462;2024-01-27T17:50:02;2.00;99.90
49042;DHT22;34859;51.608;11.462;2024-01-27T17:52:44;1.90;99.90
49042;DHT22;34859;51.608;11.462;2024-01-27T17:55:28;1.90;99.90
49042;DHT22;34859;51.608;11.462;2024-01-27T17:58:12;1.80;99.90
49042;DHT22;34859;51.608;11.462;2024-01-27T18:00:57;1.80;99.90
49042;DHT22;34859;51.608;11.462;2024-01-27T18:03:38;1.70;99.90
49042;DHT22;34859;51.608;11.462;2024-01-27T18:06:23;1.70;99.90
49042;DHT22;34859;51.608;11.462;2024-01-27T18:09:07;1.60;99.90
49042;DHT22;34859;51.608;11.462;2024-01-27T18:11:49;1.40;99.90
49042;DHT22;34859;51.608;11.462;2024-01-27T18:14:33;1.30;99.90
49042;DHT22;34859;51.608;11.462;2024-01-27T18:17:17;1.40;99.90
49042;DHT22;34859;51.608;11.462;2024-01-27T18:19:59;1.20;99.90
49042;DHT22;34859;51.608;11.462;2024-01-27T18:22:43;1.10;99.90
49042;DHT22;34859;51.608;11.462;2024-01-27T18:25:24;1.10;99.90
49042;DHT22;34859;51.608;11.462;2024-01-27T18:28:10;1.10;99.90
49042;DHT22;34859;51.608;11.462;2024-01-27T18:33:20;1.10;99.90
49042;DHT22;34859;51.608;11.462;2024-01-27T18:36:08;1.10;99.90
49042;DHT22;34859;51.608;11.462;2024-01-27T18:38:53;1.00;99.90
49042;DHT22;34859;51.608;11.462;2024-01-27T18:41:35;0.90;99.90
49042;DHT22;34859;51.608;11.462;2024-01-27T18:44:26;0.90;99.90
49042;DHT22;34859;51.608;11.462;2024-01-27T18:47:11;0.80;99.90
49042;DHT22;34859;51.608;11.462;2024-01-27T18:49:56;0.90;99.90
49042;DHT22;34859;51.608;11.462;2024-01-27T18:52:41;1.00;99.90
49042;DHT22;34859;51.608;11.462;2024-01-27T18:55:26;1.00;99.90
49042;DHT22;34859;51.608;11.462;2024-01-27T18:58:18;0.90;99.90
49042;DHT22;34859;51.608;11.462;2024-01-27T19:01:06;0.80;99.90
49042;DHT22;34859;51.608;11.462;2024-01-27T19:03:50;0.70;99.90
49042;DHT22;34859;51.608;11.462;2024-01-27T19:06:35;0.50;99.90
49042;DHT22;34859;51.608;11.462;2024-01-27T19:09:20;0.40;99.90
49042;DHT22;34859;51.608;11.462;2024-01-27T19:12:05;0.50;99.90
49042;DHT22;34859;51.608;11.462;2024-01-27T19:14:51;0.70;99.90
49042;DHT22;34859;51.608;11.462;2024-01-27T19:17:36;0.70;99.90
49042;DHT22;34859;51.608;11.462;2024-01-27T19:20:12;0.60;99.90
49042;DHT22;34859;51.608;11.462;2024-01-27T19:22:57;0.60;99.90
49042;DHT22;34859;51.608;11.462;2024-01-27T19:25:42;0.50;99.90
49042;DHT22;34859;51.608;11.462;2024-01-27T19:28:27;0.50;99.90
49042;DHT22;34859;51.608;11.462;2024-01-27T19:31:13;0.50;99.90
49042;DHT22;34859;51.608;11.462;2024-01-27T19:33:58;0.60;99.90
49042;DHT22;34859;51.608;11.462;2024-01-27T19:36:43;0.40;99.90
49042;DHT22;34859;51.608;11.462;2024-01-27T19:39:28;0.40;99.90
49042;DHT22;34859;51.608;11.462;2024-01-27T19:42:13;0.40;99.90
49042;DHT22;34859;51.608;11.462;2024-01-27T19:44:58;0.40;99.90
49042;DHT22;34859;51.608;11.462;2024-01-27T19:47:42;0.40;99.90
49042;DHT22;34859;51.608;11.462;2024-01-27T19:50:27;0.30;99.90
49042;DHT22;34859;51.608;11.462;2024-01-27T19:53:13;0.40;99.90
49042;DHT22;34859;51.608;11.462;2024-01-27T19:55:58;0.40;99.90
49042;DHT22;34859;51.608;11.462;2024-01-27T19:58:43;0.30;99.90
49042;DHT22;34859;51.608;11.462;2024-01-27T20:01:28;0.40;99.90
49042;DHT22;34859;51.608;11.462;2024-01-27T20:04:12;0.40;99.90
49042;DHT22;34859;51.608;11.462;2024-01-27T20:06:57;0.40;99.90
49042;DHT22;34859;51.608;11.462;2024-01-27T20:09:45;0.30;99.90
49042;DHT22;34859;51.608;11.462;2024-01-27T20:12:30;0.20;99.90
49042;DHT22;34859;51.608;11.462;2024-01-27T20:15:15;0.10;99.90
49042;DHT22;34859;51.608;11.462;2024-01-27T20:18:00;0.20;99.90
49042;DHT22;34859;51.608;11.462;2024-01-27T20:20:44;0.40;99.90
49042;DHT22;34859;51.608;11.462;2024-01-27T20:23:29;0.40;99.90
49042;DHT22;34859;51.608;11.462;2024-01-27T20:26:16;0.30;99.90
49042;DHT22;34859;51.608;11.462;2024-01-27T20:29:01;0.00;99.90
49042;DHT22;34859;51.608;11.462;2024-01-27T20:31:43;0.10;99.90
49042;DHT22;34859;51.608;11.462;2024-01-27T20:34:29;0.10;99.90
49042;DHT22;34859;51.608;11.462;2024-01-27T20:37:14;0.10;99.90
49042;DHT22;34859;51.608;11.462;2024-01-27T20:39:59;0.40;99.90
49042;DHT22;34859;51.608;11.462;2024-01-27T20:42:44;0.40;99.90
49042;DHT22;34859;51.608;11.462;2024-01-27T20:45:28;0.40;99.90
49042;DHT22;34859;51.608;11.462;2024-01-27T20:48:13;0.20;99.90
49042;DHT22;34859;51.608;11.462;2024-01-27T20:51:00;0.10;99.90
49042;DHT22;34859;51.608;11.462;2024-01-27T20:53:39;0.10;99.90
49042;DHT22;34859;51.608;11.462;2024-01-27T20:56:24;0.20;99.90
49042;DHT22;34859;51.608;11.462;2024-01-27T20:59:10;0.20;99.90
49042;DHT22;34859;51.608;11.462;2024-01-27T21:01:55;0.20;99.90
49042;DHT22;34859;51.608;11.462;2024-01-27T21:04:46;0.20;99.90
49042;DHT22;34859;51.608;11.462;2024-01-27T21:07:31;0.20;99.90
49042;DHT22;34859;51.608;11.462;2024-01-27T21:10:15;0.30;99.90
49042;DHT22;34859;51.608;11.462;2024-01-27T21:13:01;0.30;99.90
49042;DHT22;34859;51.608;11.462;2024-01-27T21:15:45;0.30;99.90
49042;DHT22;34859;51.608;11.462;2024-01-27T21:18:30;0.20;99.90
49042;DHT22;34859;51.608;11.462;2024-01-27T21:21:15;0.10;99.90
49042;DHT22;34859;51.608;11.462;2024-01-27T21:24:00;0.10;99.90
49042;DHT22;34859;51.608;11.462;2024-01-27T21:26:45;0.10;99.90
49042;DHT22;34859;51.608;11.462;2024-01-27T21:29:30;0.10;99.90
49042;DHT22;34859;51.608;11.462;2024-01-27T21:32:15;0.10;99.90
49042;DHT22;34859;51.608;11.462;2024-01-27T21:35:00;0.10;99.90
49042;DHT22;34859;51.608;11.462;2024-01-27T21:37:45;0.10;99.90
49042;DHT22;34859;51.608;11.462;2024-01-27T21:40:31;0.10;99.90
49042;DHT22;34859;51.608;11.462;2024-01-27T21:43:20;0.00;99.90
49042;DHT22;34859;51.608;11.462;2024-01-27T21:46:05;0.00;99.90
49042;DHT22;34859;51.608;11.462;2024-01-27T21:48:50;0.00;99.90
49042;DHT22;34859;51.608;11.462;2024-01-27T21:51:26;0.00;99.90
49042;DHT22;34859;51.608;11.462;2024-01-27T21:54:11;0.00;99.90
49042;DHT22;34859;51.608;11.462;2024-01-27T21:56:56;0.00;99.90
49042;DHT22;34859;51.608;11.462;2024-01-27T21:59:44;0.00;99.90
49042;DHT22;34859;51.608;11.462;2024-01-27T22:02:29;0.00;99.90
49042;DHT22;34859;51.608;11.462;2024-01-27T22:05:16;0.00;99.90
49042;DHT22;34859;51.608;11.462;2024-01-27T22:08:01;0.00;99.90
49042;DHT22;34859;51.608;11.462;2024-01-27T22:10:47;0.10;99.90
49042;DHT22;34859;51.608;11.462;2024-01-27T22:13:30;0.00;99.90
49042;DHT22;34859;51.608;11.462;2024-01-27T22:16:15;-0.10;99.90
49042;DHT22;34859;51.608;11.462;2024-01-27T22:18:59;-0.10;99.90
49042;DHT22;34859;51.608;11.462;2024-01-27T22:21:45;0.00;99.90
49042;DHT22;34859;51.608;11.462;2024-01-27T22:24:30;0.00;99.90
49042;DHT22;34859;51.608;11.462;2024-01-27T22:27:15;0.00;99.90
49042;DHT22;34859;51.608;11.462;2024-01-27T22:30:00;0.10;99.90
49042;DHT22;34859;51.608;11.462;2024-01-27T22:32:44;0.00;99.90
49042;DHT22;34859;51.608;11.462;2024-01-27T22:35:31;0.00;99.90
49042;DHT22;34859;51.608;11.462;2024-01-27T22:38:10;0.00;99.90
49042;DHT22;34859;51.608;11.462;2024-01-27T22:40:55;0.00;99.90
49042;DHT22;34859;51.608;11.462;2024-01-27T22:43:40;-0.10;99.90
49042;DHT22;34859;51.608;11.462;2024-01-27T22:46:25;-0.10;99.90